Laganborg — PHQB — position and weather

sailwx.info

Track history (hours):
 
Tides and Currents Weather Stations Pressure Air Temp Water Temp Dewpoint Dewpoint Depression Visibility Wind Speed Wind Dir Waves Ship Positions

Laganborg

Last reported at 2018-Apr-25 00:04 UTC. Time now 2018-Apr-25 06:52 UTC.
Position N 36°34' W 008°26'.

Length 123 m; draft 6.7 m.

Type: Cargo ship. MMSI: 244297000.

Date/timePositionNaut miles runAvg speedWind from/ knotsBaromVisibWave heightAir tempDewpointWater temp
2018-Apr-25 00:04N 36°34' W 008°26'14511.1
2018-Apr-24 10:59N 35°59' W 005°31'510.2
2018-Apr-24 10:28N 36°01' W 005°25'4 9.6
2018-Apr-24 10:00N 36°02' W 005°20'  
2018-Apr-21 13:45N 37°24' W 001°06'313.2
2018-Apr-21 13:31N 37°25' W 001°02'713.1
2018-Apr-21 13:01N 37°28' W 000°55'612.7
2018-Apr-21 12:31N 37°30' W 000°47'612.8
2018-Apr-21 12:00N 37°32' W 000°39'612.3
2018-Apr-21 11:30N 37°35' W 000°33'612.9
2018-Apr-21 11:01N 37°41' W 000°29'712.9
2018-Apr-21 10:30N 37°46' W 000°24'712.9
2018-Apr-21 09:58N 37°52' W 000°19'612.8
2018-Apr-21 09:30N 37°57' W 000°15'  
2018-Apr-17 06:54N 37°44' W 000°22'512.3
2018-Apr-17 06:30N 37°40' W 000°25'612.2
2018-Apr-17 06:00N 37°35' W 000°29'612.1
2018-Apr-17 05:30N 37°30' W 000°34'612.0
2018-Apr-17 04:58N 37°26' W 000°41'511.4
2018-Apr-17 04:30N 37°23' W 000°45'611.3
2018-Apr-17 04:00N 37°19' W 000°51'611.1
2018-Apr-17 03:29N 37°15' W 000°56'610.8
2018-Apr-17 02:59N 37°12' W 001°01'21711.4
2018-Apr-16 08:01N 35°56' W 005°15'012.4
2018-Apr-16 07:59N 35°56' W 005°15'3 6.2
2018-Apr-16 07:28N 35°54' W 005°18'0 0.0
2018-Apr-16 06:58N 35°54' W 005°18'0 0.0
2018-Apr-16 06:28N 35°54' W 005°18'0 0.0
2018-Apr-16 05:58N 35°54' W 005°18'0 0.0
2018-Apr-16 05:28N 35°54' W 005°18'0 0.0
2018-Apr-16 04:58N 35°54' W 005°18'0 0.0
2018-Apr-16 04:28N 35°54' W 005°18'0 0.0
2018-Apr-16 03:58N 35°54' W 005°18'0 0.0
2018-Apr-16 03:28N 35°54' W 005°18'0 0.0
2018-Apr-16 03:00N 35°54' W 005°18'1 2.4
2018-Apr-16 02:30N 35°55' W 005°19'1 1.9
2018-Apr-16 02:00N 35°56' W 005°19'0 0.2
2018-Apr-16 01:30N 35°56' W 005°20'2 4.0
2018-Apr-16 01:00N 35°57' W 005°17'1 1.6
2018-Apr-16 00:30N 35°57' W 005°18'1 1.1
2018-Apr-16 00:00N 35°56' W 005°19'0 0.9
2018-Apr-15 23:30N 35°56' W 005°20'0 0.6
2018-Apr-15 23:00N 35°56' W 005°20'0 0.7
2018-Apr-15 22:30N 35°56' W 005°20'4 7.5
2018-Apr-15 22:00N 35°57' W 005°24'814.1
2018-Apr-15 21:28N 35°55' W 005°33'613.6
2018-Apr-15 21:00N 35°55' W 005°41'  
Track history (hours):
 
Tides and Currents Weather Stations Pressure Air Temp Water Temp Dewpoint Dewpoint Depression Visibility Wind Speed Wind Dir Waves Ship Positions

Laganborg

Last reported at 2018-Apr-25 00:04 UTC. Time now 2018-Apr-25 06:52 UTC.
Position N 36°34' W 008°26'.

Length 123 m; draft 6.7 m.

Type: Cargo ship. MMSI: 244297000.

Date/timePositionNaut miles runAvg speedWind from/ knotsBaromVisibWave heightAir tempDewpointWater temp
2018-Apr-25 00:04N 36°34' W 008°26'14511.1
2018-Apr-24 10:59N 35°59' W 005°31'510.2
2018-Apr-24 10:28N 36°01' W 005°25'4 9.6
2018-Apr-24 10:00N 36°02' W 005°20'  
2018-Apr-21 13:45N 37°24' W 001°06'313.2
2018-Apr-21 13:31N 37°25' W 001°02'713.1
2018-Apr-21 13:01N 37°28' W 000°55'612.7
2018-Apr-21 12:31N 37°30' W 000°47'612.8
2018-Apr-21 12:00N 37°32' W 000°39'612.3
2018-Apr-21 11:30N 37°35' W 000°33'612.9
2018-Apr-21 11:01N 37°41' W 000°29'712.9
2018-Apr-21 10:30N 37°46' W 000°24'712.9
2018-Apr-21 09:58N 37°52' W 000°19'612.8
2018-Apr-21 09:30N 37°57' W 000°15'  
2018-Apr-17 06:54N 37°44' W 000°22'512.3
2018-Apr-17 06:30N 37°40' W 000°25'612.2
2018-Apr-17 06:00N 37°35' W 000°29'612.1
2018-Apr-17 05:30N 37°30' W 000°34'612.0
2018-Apr-17 04:58N 37°26' W 000°41'511.4
2018-Apr-17 04:30N 37°23' W 000°45'611.3
2018-Apr-17 04:00N 37°19' W 000°51'611.1
2018-Apr-17 03:29N 37°15' W 000°56'610.8
2018-Apr-17 02:59N 37°12' W 001°01'21711.4
2018-Apr-16 08:01N 35°56' W 005°15'012.4
2018-Apr-16 07:59N 35°56' W 005°15'3 6.2
2018-Apr-16 07:28N 35°54' W 005°18'0 0.0
2018-Apr-16 06:58N 35°54' W 005°18'0 0.0
2018-Apr-16 06:28N 35°54' W 005°18'0 0.0
2018-Apr-16 05:58N 35°54' W 005°18'0 0.0
2018-Apr-16 05:28N 35°54' W 005°18'0 0.0
2018-Apr-16 04:58N 35°54' W 005°18'0 0.0
2018-Apr-16 04:28N 35°54' W 005°18'0 0.0
2018-Apr-16 03:58N 35°54' W 005°18'0 0.0
2018-Apr-16 03:28N 35°54' W 005°18'0 0.0
2018-Apr-16 03:00N 35°54' W 005°18'1 2.4
2018-Apr-16 02:30N 35°55' W 005°19'1 1.9
2018-Apr-16 02:00N 35°56' W 005°19'0 0.2
2018-Apr-16 01:30N 35°56' W 005°20'2 4.0
2018-Apr-16 01:00N 35°57' W 005°17'1 1.6
2018-Apr-16 00:30N 35°57' W 005°18'1 1.1
2018-Apr-16 00:00N 35°56' W 005°19'0 0.9
2018-Apr-15 23:30N 35°56' W 005°20'0 0.6
2018-Apr-15 23:00N 35°56' W 005°20'0 0.7
2018-Apr-15 22:30N 35°56' W 005°20'4 7.5
2018-Apr-15 22:00N 35°57' W 005°24'814.1
2018-Apr-15 21:28N 35°55' W 005°33'613.6
2018-Apr-15 21:00N 35°55' W 005°41'  

Dump ship's entire track history